sensor_id;sensor_type;location;lat;lon;timestamp;temperature;humidity
7564;DHT22;3823;53.586;10.040;2023-04-24T04:01:14;12.00;99.90
7564;DHT22;3823;53.586;10.040;2023-04-24T04:03:41;12.00;99.90
7564;DHT22;3823;53.586;10.040;2023-04-24T04:06:06;11.90;99.90
7564;DHT22;3823;53.586;10.040;2023-04-24T04:08:32;12.00;99.90
7564;DHT22;3823;53.586;10.040;2023-04-24T04:10:58;11.90;99.90
7564;DHT22;3823;53.586;10.040;2023-04-24T04:13:23;11.90;94.30
7564;DHT22;3823;53.586;10.040;2023-04-24T04:15:49;11.90;86.70
7564;DHT22;3823;53.586;10.040;2023-04-24T04:18:14;11.90;64.40
7564;DHT22;3823;53.586;10.040;2023-04-24T04:20:40;11.80;14.60
7564;DHT22;3823;53.586;10.040;2023-04-24T04:23:06;11.80;1.00
7564;DHT22;3823;53.586;10.040;2023-04-24T04:25:32;11.90;1.00
7564;DHT22;3823;53.586;10.040;2023-04-24T04:27:57;11.90;1.00
7564;DHT22;3823;53.586;10.040;2023-04-24T04:30:24;11.90;1.00
7564;DHT22;3823;53.586;10.040;2023-04-24T04:32:51;11.90;1.00
7564;DHT22;3823;53.586;10.040;2023-04-24T04:35:17;12.00;1.00
7564;DHT22;3823;53.586;10.040;2023-04-24T04:37:42;12.00;1.00
7564;DHT22;3823;53.586;10.040;2023-04-24T04:40:08;12.10;1.00
7564;DHT22;3823;53.586;10.040;2023-04-24T04:42:37;12.10;1.00
7564;DHT22;3823;53.586;10.040;2023-04-24T04:45:07;12.10;1.00
7564;DHT22;3823;53.586;10.040;2023-04-24T04:47:34;12.00;1.00
7564;DHT22;3823;53.586;10.040;2023-04-24T04:50:00;12.00;1.00
7564;DHT22;3823;53.586;10.040;2023-04-24T04:52:26;12.00;1.00
7564;DHT22;3823;53.586;10.040;2023-04-24T04:54:52;12.00;1.00
7564;DHT22;3823;53.586;10.040;2023-04-24T04:57:18;12.00;1.00
7564;DHT22;3823;53.586;10.040;2023-04-24T04:59:43;12.00;1.00
7564;DHT22;3823;53.586;10.040;2023-04-24T05:02:09;12.00;1.00
7564;DHT22;3823;53.586;10.040;2023-04-24T05:04:35;12.10;1.00
7564;DHT22;3823;53.586;10.040;2023-04-24T05:07:00;12.20;1.00
7564;DHT22;3823;53.586;10.040;2023-04-24T05:09:26;12.30;1.00
7564;DHT22;3823;53.586;10.040;2023-04-24T05:11:53;12.20;1.00
7564;DHT22;3823;53.586;10.040;2023-04-24T05:14:18;12.30;1.00
7564;DHT22;3823;53.586;10.040;2023-04-24T05:16:44;12.30;1.00
7564;DHT22;3823;53.586;10.040;2023-04-24T05:19:10;12.30;1.00
7564;DHT22;3823;53.586;10.040;2023-04-24T05:21:37;12.30;1.00
7564;DHT22;3823;53.586;10.040;2023-04-24T05:24:04;12.20;1.00
7564;DHT22;3823;53.586;10.040;2023-04-24T05:26:30;12.30;1.00
7564;DHT22;3823;53.586;10.040;2023-04-24T05:28:56;12.30;1.00
7564;DHT22;3823;53.586;10.040;2023-04-24T05:31:21;12.30;1.00
7564;DHT22;3823;53.586;10.040;2023-04-24T05:33:47;12.30;1.00
7564;DHT22;3823;53.586;10.040;2023-04-24T05:36:12;12.30;1.00
7564;DHT22;3823;53.586;10.040;2023-04-24T05:38:38;12.30;1.00
7564;DHT22;3823;53.586;10.040;2023-04-24T05:41:04;12.40;1.00
7564;DHT22;3823;53.586;10.040;2023-04-24T05:43:29;12.40;1.00
7564;DHT22;3823;53.586;10.040;2023-04-24T05:45:55;12.40;1.00
7564;DHT22;3823;53.586;10.040;2023-04-24T05:48:21;12.50;1.00
7564;DHT22;3823;53.586;10.040;2023-04-24T05:50:48;12.60;1.00
7564;DHT22;3823;53.586;10.040;2023-04-24T05:53:13;12.60;1.00
7564;DHT22;3823;53.586;10.040;2023-04-24T05:55:39;12.70;1.00
7564;DHT22;3823;53.586;10.040;2023-04-24T05:58:05;12.70;1.00
7564;DHT22;3823;53.586;10.040;2023-04-24T06:00:31;12.60;1.00
7564;DHT22;3823;53.586;10.040;2023-04-24T06:02:56;12.70;1.00
7564;DHT22;3823;53.586;10.040;2023-04-24T06:05:22;12.90;1.00
7564;DHT22;3823;53.586;10.040;2023-04-24T06:07:48;12.90;1.00
7564;DHT22;3823;53.586;10.040;2023-04-24T06:10:14;12.90;1.00
7564;DHT22;3823;53.586;10.040;2023-04-24T06:12:39;12.90;1.00
7564;DHT22;3823;53.586;10.040;2023-04-24T06:15:05;13.10;1.00
7564;DHT22;3823;53.586;10.040;2023-04-24T06:17:31;13.30;1.00
7564;DHT22;3823;53.586;10.040;2023-04-24T06:19:57;13.40;1.00
7564;DHT22;3823;53.586;10.040;2023-04-24T06:22:23;13.40;1.00
7564;DHT22;3823;53.586;10.040;2023-04-24T06:24:48;13.50;1.00
7564;DHT22;3823;53.586;10.040;2023-04-24T06:27:14;13.50;1.00
7564;DHT22;3823;53.586;10.040;2023-04-24T06:29:40;13.50;1.00
7564;DHT22;3823;53.586;10.040;2023-04-24T06:32:05;13.60;1.00
7564;DHT22;3823;53.586;10.040;2023-04-24T06:34:31;13.40;1.00
7564;DHT22;3823;53.586;10.040;2023-04-24T06:36:58;13.50;1.00
7564;DHT22;3823;53.586;10.040;2023-04-24T06:39:23;13.60;1.00
7564;DHT22;3823;53.586;10.040;2023-04-24T06:41:49;13.70;1.00
7564;DHT22;3823;53.586;10.040;2023-04-24T06:44:15;13.70;1.00
7564;DHT22;3823;53.586;10.040;2023-04-24T06:46:41;13.80;1.00
7564;DHT22;3823;53.586;10.040;2023-04-24T06:49:06;14.00;1.00
7564;DHT22;3823;53.586;10.040;2023-04-24T06:51:32;13.90;1.00
7564;DHT22;3823;53.586;10.040;2023-04-24T06:53:58;13.80;1.00
7564;DHT22;3823;53.586;10.040;2023-04-24T06:56:25;13.80;1.00
7564;DHT22;3823;53.586;10.040;2023-04-24T06:58:51;14.00;1.00
7564;DHT22;3823;53.586;10.040;2023-04-24T07:01:17;13.90;1.00
7564;DHT22;3823;53.586;10.040;2023-04-24T07:03:42;13.80;1.00
7564;DHT22;3823;53.586;10.040;2023-04-24T07:06:09;14.20;1.00
7564;DHT22;3823;53.586;10.040;2023-04-24T07:08:36;14.40;1.00
7564;DHT22;3823;53.586;10.040;2023-04-24T07:11:02;14.20;1.00
7564;DHT22;3823;53.586;10.040;2023-04-24T07:13:28;14.20;1.00
7564;DHT22;3823;53.586;10.040;2023-04-24T07:15:54;14.10;1.00
7564;DHT22;3823;53.586;10.040;2023-04-24T07:18:21;13.80;1.00
7564;DHT22;3823;53.586;10.040;2023-04-24T07:20:47;13.70;1.00
7564;DHT22;3823;53.586;10.040;2023-04-24T07:23:12;13.60;1.00
7564;DHT22;3823;53.586;10.040;2023-04-24T07:25:38;13.60;1.00
7564;DHT22;3823;53.586;10.040;2023-04-24T07:28:04;13.80;1.00
7564;DHT22;3823;53.586;10.040;2023-04-24T07:30:31;14.00;1.00
7564;DHT22;3823;53.586;10.040;2023-04-24T07:32:58;14.00;1.00
7564;DHT22;3823;53.586;10.040;2023-04-24T07:35:24;13.90;1.00
7564;DHT22;3823;53.586;10.040;2023-04-24T07:37:52;14.00;1.00
7564;DHT22;3823;53.586;10.040;2023-04-24T07:40:18;14.00;1.00
7564;DHT22;3823;53.586;10.040;2023-04-24T07:42:44;14.10;1.00
7564;DHT22;3823;53.586;10.040;2023-04-24T07:45:09;14.10;1.00
7564;DHT22;3823;53.586;10.040;2023-04-24T07:47:35;14.10;1.00
7564;DHT22;3823;53.586;10.040;2023-04-24T07:50:02;14.10;1.00
7564;DHT22;3823;53.586;10.040;2023-04-24T07:52:28;14.10;1.00
7564;DHT22;3823;53.586;10.040;2023-04-24T07:54:54;14.30;1.00
7564;DHT22;3823;53.586;10.040;2023-04-24T07:57:24;14.20;1.00
7564;DHT22;3823;53.586;10.040;2023-04-24T07:59:50;13.90;1.00
7564;DHT22;3823;53.586;10.040;2023-04-24T08:02:16;13.90;1.00
7564;DHT22;3823;53.586;10.040;2023-04-24T08:04:41;13.90;1.00
7564;DHT22;3823;53.586;10.040;2023-04-24T08:07:07;14.00;1.00
7564;DHT22;3823;53.586;10.040;2023-04-24T08:09:33;14.10;1.00
7564;DHT22;3823;53.586;10.040;2023-04-24T08:11:59;14.00;1.00
7564;DHT22;3823;53.586;10.040;2023-04-24T08:14:25;13.90;1.00
7564;DHT22;3823;53.586;10.040;2023-04-24T08:16:52;13.80;1.00
7564;DHT22;3823;53.586;10.040;2023-04-24T08:19:17;13.80;1.00
7564;DHT22;3823;53.586;10.040;2023-04-24T08:21:43;13.90;1.00
7564;DHT22;3823;53.586;10.040;2023-04-24T08:24:08;13.80;1.00
7564;DHT22;3823;53.586;10.040;2023-04-24T08:26:34;13.70;1.00
7564;DHT22;3823;53.586;10.040;2023-04-24T08:29:00;13.70;1.00
7564;DHT22;3823;53.586;10.040;2023-04-24T08:31:25;13.70;1.00
7564;DHT22;3823;53.586;10.040;2023-04-24T08:33:51;13.80;1.00
7564;DHT22;3823;53.586;10.040;2023-04-24T08:36:17;13.80;1.00
7564;DHT22;3823;53.586;10.040;2023-04-24T08:38:42;13.70;1.00
7564;DHT22;3823;53.586;10.040;2023-04-24T08:41:09;13.50;1.00
7564;DHT22;3823;53.586;10.040;2023-04-24T08:43:35;13.50;1.00
7564;DHT22;3823;53.586;10.040;2023-04-24T08:46:04;13.50;1.00
7564;DHT22;3823;53.586;10.040;2023-04-24T08:48:30;13.50;1.00
7564;DHT22;3823;53.586;10.040;2023-04-24T08:50:57;13.50;1.00
7564;DHT22;3823;53.586;10.040;2023-04-24T08:53:24;13.50;1.00
7564;DHT22;3823;53.586;10.040;2023-04-24T08:55:50;13.50;1.00
7564;DHT22;3823;53.586;10.040;2023-04-24T08:58:17;13.40;1.00
7564;DHT22;3823;53.586;10.040;2023-04-24T09:00:43;13.50;1.00
7564;DHT22;3823;53.586;10.040;2023-04-24T09:03:16;13.50;1.00
7564;DHT22;3823;53.586;10.040;2023-04-24T09:05:47;13.50;1.00
7564;DHT22;3823;53.586;10.040;2023-04-24T09:08:13;13.40;1.00
7564;DHT22;3823;53.586;10.040;2023-04-24T09:10:40;13.60;1.00
7564;DHT22;3823;53.586;10.040;2023-04-24T09:13:06;13.80;1.00
7564;DHT22;3823;53.586;10.040;2023-04-24T09:15:34;13.80;1.00
7564;DHT22;3823;53.586;10.040;2023-04-24T09:18:00;13.70;1.00
7564;DHT22;3823;53.586;10.040;2023-04-24T09:20:26;13.60;1.00
7564;DHT22;3823;53.586;10.040;2023-04-24T09:22:57;13.60;1.00
7564;DHT22;3823;53.586;10.040;2023-04-24T09:25:30;13.60;1.00
7564;DHT22;3823;53.586;10.040;2023-04-24T09:28:03;13.60;1.00
7564;DHT22;3823;53.586;10.040;2023-04-24T09:30:29;13.50;1.00
7564;DHT22;3823;53.586;10.040;2023-04-24T09:33:21;13.50;1.00
7564;DHT22;3823;53.586;10.040;2023-04-24T09:35:52;13.40;1.00
7564;DHT22;3823;53.586;10.040;2023-04-24T09:38:19;13.40;1.00
7564;DHT22;3823;53.586;10.040;2023-04-24T09:40:45;13.40;1.00
7564;DHT22;3823;53.586;10.040;2023-04-24T09:43:11;13.50;1.00
7564;DHT22;3823;53.586;10.040;2023-04-24T09:45:38;13.50;1.00
7564;DHT22;3823;53.586;10.040;2023-04-24T09:48:05;13.50;1.00
7564;DHT22;3823;53.586;10.040;2023-04-24T09:50:32;13.60;1.00
7564;DHT22;3823;53.586;10.040;2023-04-24T09:53:02;13.60;1.00
7564;DHT22;3823;53.586;10.040;2023-04-24T09:55:27;13.70;1.00
7564;DHT22;3823;53.586;10.040;2023-04-24T09:57:58;13.70;1.00
7564;DHT22;3823;53.586;10.040;2023-04-24T10:00:28;13.60;1.00
7564;DHT22;3823;53.586;10.040;2023-04-24T10:02:58;13.60;1.00
7564;DHT22;3823;53.586;10.040;2023-04-24T10:05:35;13.50;1.00
7564;DHT22;3823;53.586;10.040;2023-04-24T10:08:02;13.60;1.00
7564;DHT22;3823;53.586;10.040;2023-04-24T10:10:29;13.60;1.00
7564;DHT22;3823;53.586;10.040;2023-04-24T10:12:55;13.60;1.00
7564;DHT22;3823;53.586;10.040;2023-04-24T10:15:21;13.60;1.00
7564;DHT22;3823;53.586;10.040;2023-04-24T10:17:49;13.50;1.00
7564;DHT22;3823;53.586;10.040;2023-04-24T10:20:21;13.50;1.00
7564;DHT22;3823;53.586;10.040;2023-04-24T10:22:52;13.50;1.00
7564;DHT22;3823;53.586;10.040;2023-04-24T10:25:26;13.50;1.00
7564;DHT22;3823;53.586;10.040;2023-04-24T10:27:53;13.50;1.00
7564;DHT22;3823;53.586;10.040;2023-04-24T10:30:22;13.50;1.00
7564;DHT22;3823;53.586;10.040;2023-04-24T10:32:48;13.40;1.00
7564;DHT22;3823;53.586;10.040;2023-04-24T10:35:14;13.40;1.00
7564;DHT22;3823;53.586;10.040;2023-04-24T10:37:45;13.50;1.00
7564;DHT22;3823;53.586;10.040;2023-04-24T10:40:12;13.40;1.00
7564;DHT22;3823;53.586;10.040;2023-04-24T10:42:41;13.30;1.00
7564;DHT22;3823;53.586;10.040;2023-04-24T10:45:16;13.40;1.00
7564;DHT22;3823;53.586;10.040;2023-04-24T10:47:51;13.50;1.00
7564;DHT22;3823;53.586;10.040;2023-04-24T10:50:16;13.60;1.00
7564;DHT22;3823;53.586;10.040;2023-04-24T10:52:49;13.60;1.00
7564;DHT22;3823;53.586;10.040;2023-04-24T10:55:39;13.70;1.00
7564;DHT22;3823;53.586;10.040;2023-04-24T10:58:05;13.60;1.00
7564;DHT22;3823;53.586;10.040;2023-04-24T11:00:30;13.50;1.00
7564;DHT22;3823;53.586;10.040;2023-04-24T11:02:56;13.40;1.00
7564;DHT22;3823;53.586;10.040;2023-04-24T11:05:48;13.50;1.00
7564;DHT22;3823;53.586;10.040;2023-04-24T11:08:23;13.50;1.00
7564;DHT22;3823;53.586;10.040;2023-04-24T11:11:11;13.70;1.00
7564;DHT22;3823;53.586;10.040;2023-04-24T11:14:01;14.00;1.00
7564;DHT22;3823;53.586;10.040;2023-04-24T11:19:04;14.40;1.00
7564;DHT22;3823;53.586;10.040;2023-04-24T11:24:31;14.20;1.00
7564;DHT22;3823;53.586;10.040;2023-04-24T11:29:46;13.90;1.00
7564;DHT22;3823;53.586;10.040;2023-04-24T11:32:19;13.90;1.00
7564;DHT22;3823;53.586;10.040;2023-04-24T11:34:49;13.90;1.00
7564;DHT22;3823;53.586;10.040;2023-04-24T11:37:15;14.00;1.00
7564;DHT22;3823;53.586;10.040;2023-04-24T11:39:40;14.00;1.00
7564;DHT22;3823;53.586;10.040;2023-04-24T11:42:07;14.00;1.00
7564;DHT22;3823;53.586;10.040;2023-04-24T11:44:34;14.00;1.00
7564;DHT22;3823;53.586;10.040;2023-04-24T11:46:59;13.90;1.00
7564;DHT22;3823;53.586;10.040;2023-04-24T11:49:25;14.00;1.00
7564;DHT22;3823;53.586;10.040;2023-04-24T11:51:55;14.20;1.00
7564;DHT22;3823;53.586;10.040;2023-04-24T11:54:21;14.30;1.00
7564;DHT22;3823;53.586;10.040;2023-04-24T11:56:47;14.10;1.00
7564;DHT22;3823;53.586;10.040;2023-04-24T11:59:12;14.10;1.00
7564;DHT22;3823;53.586;10.040;2023-04-24T12:01:48;14.00;1.00
7564;DHT22;3823;53.586;10.040;2023-04-24T12:04:14;13.90;1.00
7564;DHT22;3823;53.586;10.040;2023-04-24T12:06:58;13.80;1.00
7564;DHT22;3823;53.586;10.040;2023-04-24T12:09:24;13.80;1.00
7564;DHT22;3823;53.586;10.040;2023-04-24T12:11:55;13.90;1.00
7564;DHT22;3823;53.586;10.040;2023-04-24T12:14:24;13.90;1.00
7564;DHT22;3823;53.586;10.040;2023-04-24T12:16:52;14.00;1.00
7564;DHT22;3823;53.586;10.040;2023-04-24T12:19:22;14.00;1.00
7564;DHT22;3823;53.586;10.040;2023-04-24T12:22:01;14.00;1.00
7564;DHT22;3823;53.586;10.040;2023-04-24T12:24:27;14.00;1.00
7564;DHT22;3823;53.586;10.040;2023-04-24T12:26:53;13.80;1.00
7564;DHT22;3823;53.586;10.040;2023-04-24T12:29:22;13.70;1.00
7564;DHT22;3823;53.586;10.040;2023-04-24T12:31:47;13.80;1.00
7564;DHT22;3823;53.586;10.040;2023-04-24T12:34:23;14.00;1.00
7564;DHT22;3823;53.586;10.040;2023-04-24T12:36:50;14.00;1.00
7564;DHT22;3823;53.586;10.040;2023-04-24T12:39:19;13.90;1.00
7564;DHT22;3823;53.586;10.040;2023-04-24T12:41:55;13.90;1.00
7564;DHT22;3823;53.586;10.040;2023-04-24T12:44:32;13.90;1.00
7564;DHT22;3823;53.586;10.040;2023-04-24T12:47:00;13.90;1.00
7564;DHT22;3823;53.586;10.040;2023-04-24T12:49:25;14.00;1.00
7564;DHT22;3823;53.586;10.040;2023-04-24T12:51:51;14.00;1.00
7564;DHT22;3823;53.586;10.040;2023-04-24T12:54:16;14.10;1.00
7564;DHT22;3823;53.586;10.040;2023-04-24T12:56:42;14.10;1.00
7564;DHT22;3823;53.586;10.040;2023-04-24T12:59:07;14.00;1.00
7564;DHT22;3823;53.586;10.040;2023-04-24T13:01:33;13.90;1.00
7564;DHT22;3823;53.586;10.040;2023-04-24T13:03:58;13.80;1.00
7564;DHT22;3823;53.586;10.040;2023-04-24T13:06:24;13.70;1.00
7564;DHT22;3823;53.586;10.040;2023-04-24T13:08:51;13.70;1.00
7564;DHT22;3823;53.586;10.040;2023-04-24T13:11:17;13.60;1.00
7564;DHT22;3823;53.586;10.040;2023-04-24T13:13:43;13.50;1.00
7564;DHT22;3823;53.586;10.040;2023-04-24T13:16:08;13.40;1.00
7564;DHT22;3823;53.586;10.040;2023-04-24T13:18:34;13.30;1.00
7564;DHT22;3823;53.586;10.040;2023-04-24T13:21:00;13.30;1.00
7564;DHT22;3823;53.586;10.040;2023-04-24T13:23:26;13.20;1.00
7564;DHT22;3823;53.586;10.040;2023-04-24T13:25:51;13.10;1.00
7564;DHT22;3823;53.586;10.040;2023-04-24T13:28:17;13.10;1.00
7564;DHT22;3823;53.586;10.040;2023-04-24T13:30:43;13.10;1.00
7564;DHT22;3823;53.586;10.040;2023-04-24T13:33:09;12.90;1.00
7564;DHT22;3823;53.586;10.040;2023-04-24T13:35:34;12.70;1.00
7564;DHT22;3823;53.586;10.040;2023-04-24T13:38:00;12.70;1.00
7564;DHT22;3823;53.586;10.040;2023-04-24T13:40:27;12.60;1.00
7564;DHT22;3823;53.586;10.040;2023-04-24T13:42:52;12.80;1.00
7564;DHT22;3823;53.586;10.040;2023-04-24T13:45:18;12.70;1.00
7564;DHT22;3823;53.586;10.040;2023-04-24T13:47:43;12.70;1.00
7564;DHT22;3823;53.586;10.040;2023-04-24T13:50:09;12.70;1.00
7564;DHT22;3823;53.586;10.040;2023-04-24T13:52:35;12.60;1.00
7564;DHT22;3823;53.586;10.040;2023-04-24T13:55:01;12.60;1.00
7564;DHT22;3823;53.586;10.040;2023-04-24T13:57:26;12.60;1.00
7564;DHT22;3823;53.586;10.040;2023-04-24T13:59:53;12.70;1.00
7564;DHT22;3823;53.586;10.040;2023-04-24T14:02:21;12.70;1.00
7564;DHT22;3823;53.586;10.040;2023-04-24T14:04:46;12.70;1.00
7564;DHT22;3823;53.586;10.040;2023-04-24T14:07:13;12.80;1.00
7564;DHT22;3823;53.586;10.040;2023-04-24T14:09:39;12.80;1.00
7564;DHT22;3823;53.586;10.040;2023-04-24T14:12:04;12.80;1.00
7564;DHT22;3823;53.586;10.040;2023-04-24T14:14:31;12.80;1.00
7564;DHT22;3823;53.586;10.040;2023-04-24T14:16:57;12.90;1.00
7564;DHT22;3823;53.586;10.040;2023-04-24T14:19:22;13.10;1.00
7564;DHT22;3823;53.586;10.040;2023-04-24T14:21:48;13.00;1.00
7564;DHT22;3823;53.586;10.040;2023-04-24T14:24:13;12.90;1.00
7564;DHT22;3823;53.586;10.040;2023-04-24T14:26:39;12.90;1.00
7564;DHT22;3823;53.586;10.040;2023-04-24T14:29:05;12.80;1.00
7564;DHT22;3823;53.586;10.040;2023-04-24T14:31:31;12.80;1.00
7564;DHT22;3823;53.586;10.040;2023-04-24T14:33:57;12.90;1.00
7564;DHT22;3823;53.586;10.040;2023-04-24T14:36:23;13.00;1.00
7564;DHT22;3823;53.586;10.040;2023-04-24T14:38:49;12.90;1.00
7564;DHT22;3823;53.586;10.040;2023-04-24T14:41:14;12.90;1.00
7564;DHT22;3823;53.586;10.040;2023-04-24T14:43:40;12.80;1.00
7564;DHT22;3823;53.586;10.040;2023-04-24T14:46:05;12.80;1.00
7564;DHT22;3823;53.586;10.040;2023-04-24T14:48:31;12.90;1.00
7564;DHT22;3823;53.586;10.040;2023-04-24T14:50:57;12.90;1.00
7564;DHT22;3823;53.586;10.040;2023-04-24T14:53:22;12.70;1.00
7564;DHT22;3823;53.586;10.040;2023-04-24T14:55:48;12.40;1.00
7564;DHT22;3823;53.586;10.040;2023-04-24T14:58:13;12.10;1.00
7564;DHT22;3823;53.586;10.040;2023-04-24T15:00:39;12.00;43.80
7564;DHT22;3823;53.586;10.040;2023-04-24T15:03:04;11.80;97.70
7564;DHT22;3823;53.586;10.040;2023-04-24T15:05:30;11.70;99.90
7564;DHT22;3823;53.586;10.040;2023-04-24T15:07:55;11.70;99.90
7564;DHT22;3823;53.586;10.040;2023-04-24T15:10:21;11.80;99.90
7564;DHT22;3823;53.586;10.040;2023-04-24T15:12:48;11.70;99.90
7564;DHT22;3823;53.586;10.040;2023-04-24T15:15:14;11.70;99.90
7564;DHT22;3823;53.586;10.040;2023-04-24T15:17:40;11.60;99.90
7564;DHT22;3823;53.586;10.040;2023-04-24T15:20:07;11.60;99.90
7564;DHT22;3823;53.586;10.040;2023-04-24T15:22:32;11.60;99.90
7564;DHT22;3823;53.586;10.040;2023-04-24T15:24:58;11.60;99.90
7564;DHT22;3823;53.586;10.040;2023-04-24T15:27:24;11.50;99.90
7564;DHT22;3823;53.586;10.040;2023-04-24T15:29:49;11.50;99.90
7564;DHT22;3823;53.586;10.040;2023-04-24T15:32:15;11.40;99.90
7564;DHT22;3823;53.586;10.040;2023-04-24T15:34:40;11.30;99.90
7564;DHT22;3823;53.586;10.040;2023-04-24T15:37:06;11.30;99.90
7564;DHT22;3823;53.586;10.040;2023-04-24T15:39:32;11.30;99.90
7564;DHT22;3823;53.586;10.040;2023-04-24T15:41:57;11.20;99.90
7564;DHT22;3823;53.586;10.040;2023-04-24T15:44:23;11.20;99.90
7564;DHT22;3823;53.586;10.040;2023-04-24T15:46:48;11.20;99.90
7564;DHT22;3823;53.586;10.040;2023-04-24T15:49:14;11.20;99.90
7564;DHT22;3823;53.586;10.040;2023-04-24T15:51:39;11.20;99.90
7564;DHT22;3823;53.586;10.040;2023-04-24T15:54:05;11.20;99.90
7564;DHT22;3823;53.586;10.040;2023-04-24T15:56:30;11.10;99.90
7564;DHT22;3823;53.586;10.040;2023-04-24T15:58:57;11.00;99.90
7564;DHT22;3823;53.586;10.040;2023-04-24T16:01:22;11.00;99.90
7564;DHT22;3823;53.586;10.040;2023-04-24T16:03:48;10.90;99.90
7564;DHT22;3823;53.586;10.040;2023-04-24T16:06:13;10.80;99.90
7564;DHT22;3823;53.586;10.040;2023-04-24T16:08:39;10.90;99.90
7564;DHT22;3823;53.586;10.040;2023-04-24T16:11:04;10.80;99.90
7564;DHT22;3823;53.586;10.040;2023-04-24T16:13:30;10.70;99.90
7564;DHT22;3823;53.586;10.040;2023-04-24T16:15:56;10.70;99.90
7564;DHT22;3823;53.586;10.040;2023-04-24T16:18:22;10.60;99.90
7564;DHT22;3823;53.586;10.040;2023-04-24T16:20:47;10.50;99.90
7564;DHT22;3823;53.586;10.040;2023-04-24T16:23:13;10.50;99.90
7564;DHT22;3823;53.586;10.040;2023-04-24T16:25:40;10.40;99.90
7564;DHT22;3823;53.586;10.040;2023-04-24T16:28:05;10.40;99.90
7564;DHT22;3823;53.586;10.040;2023-04-24T16:30:31;10.30;99.90
7564;DHT22;3823;53.586;10.040;2023-04-24T16:32:57;10.30;99.90
7564;DHT22;3823;53.586;10.040;2023-04-24T16:35:22;10.20;99.90
7564;DHT22;3823;53.586;10.040;2023-04-24T16:37:48;10.20;99.90
7564;DHT22;3823;53.586;10.040;2023-04-24T16:40:13;10.20;99.90
7564;DHT22;3823;53.586;10.040;2023-04-24T16:42:39;10.10;99.90
7564;DHT22;3823;53.586;10.040;2023-04-24T16:45:05;9.90;99.90
7564;DHT22;3823;53.586;10.040;2023-04-24T16:47:31;9.90;99.90
7564;DHT22;3823;53.586;10.040;2023-04-24T16:49:56;9.90;99.90
7564;DHT22;3823;53.586;10.040;2023-04-24T16:52:22;9.80;99.90
7564;DHT22;3823;53.586;10.040;2023-04-24T16:54:48;9.80;99.90
7564;DHT22;3823;53.586;10.040;2023-04-24T16:57:14;9.80;99.90
7564;DHT22;3823;53.586;10.040;2023-04-24T16:59:39;9.80;99.90
7564;DHT22;3823;53.586;10.040;2023-04-24T17:02:05;9.80;99.90
7564;DHT22;3823;53.586;10.040;2023-04-24T17:04:30;9.70;99.90
7564;DHT22;3823;53.586;10.040;2023-04-24T17:06:59;9.80;99.90
7564;DHT22;3823;53.586;10.040;2023-04-24T17:09:25;9.70;99.90
7564;DHT22;3823;53.586;10.040;2023-04-24T17:11:51;9.70;99.90
7564;DHT22;3823;53.586;10.040;2023-04-24T17:14:16;9.80;99.90
7564;DHT22;3823;53.586;10.040;2023-04-24T17:16:42;9.80;99.90
7564;DHT22;3823;53.586;10.040;2023-04-24T17:19:10;9.70;99.90
7564;DHT22;3823;53.586;10.040;2023-04-24T17:21:35;9.70;99.90
7564;DHT22;3823;53.586;10.040;2023-04-24T17:24:01;9.80;99.90
7564;DHT22;3823;53.586;10.040;2023-04-24T17:26:27;9.70;99.90
7564;DHT22;3823;53.586;10.040;2023-04-24T17:28:53;9.80;99.90
7564;DHT22;3823;53.586;10.040;2023-04-24T17:31:19;9.80;99.90
7564;DHT22;3823;53.586;10.040;2023-04-24T17:33:45;9.70;99.90
7564;DHT22;3823;53.586;10.040;2023-04-24T17:36:11;9.70;99.90
7564;DHT22;3823;53.586;10.040;2023-04-24T17:38:36;9.70;99.90
7564;DHT22;3823;53.586;10.040;2023-04-24T17:41:02;9.80;99.90
7564;DHT22;3823;53.586;10.040;2023-04-24T17:43:28;9.70;99.90
7564;DHT22;3823;53.586;10.040;2023-04-24T17:45:54;9.70;99.90
7564;DHT22;3823;53.586;10.040;2023-04-24T17:48:20;9.70;99.90
7564;DHT22;3823;53.586;10.040;2023-04-24T17:50:47;9.60;99.90
7564;DHT22;3823;53.586;10.040;2023-04-24T17:53:13;9.70;99.90
7564;DHT22;3823;53.586;10.040;2023-04-24T17:55:39;9.70;99.90
7564;DHT22;3823;53.586;10.040;2023-04-24T17:58:05;9.70;99.90
7564;DHT22;3823;53.586;10.040;2023-04-24T18:00:32;9.70;99.90
7564;DHT22;3823;53.586;10.040;2023-04-24T18:02:58;9.70;99.90
7564;DHT22;3823;53.586;10.040;2023-04-24T18:05:35;9.70;99.90
7564;DHT22;3823;53.586;10.040;2023-04-24T18:08:01;9.70;99.90
7564;DHT22;3823;53.586;10.040;2023-04-24T18:10:29;9.70;99.90
7564;DHT22;3823;53.586;10.040;2023-04-24T18:12:56;9.70;99.90
7564;DHT22;3823;53.586;10.040;2023-04-24T18:15:22;9.60;99.90
7564;DHT22;3823;53.586;10.040;2023-04-24T18:17:47;9.60;99.90
7564;DHT22;3823;53.586;10.040;2023-04-24T18:20:14;9.60;99.90
7564;DHT22;3823;53.586;10.040;2023-04-24T18:22:41;9.60;99.90
7564;DHT22;3823;53.586;10.040;2023-04-24T18:25:07;9.60;99.90
7564;DHT22;3823;53.586;10.040;2023-04-24T18:27:34;9.60;99.90
7564;DHT22;3823;53.586;10.040;2023-04-24T18:30:00;9.70;99.90
7564;DHT22;3823;53.586;10.040;2023-04-24T18:32:26;9.60;99.90
7564;DHT22;3823;53.586;10.040;2023-04-24T18:34:52;9.50;99.90
7564;DHT22;3823;53.586;10.040;2023-04-24T18:37:18;9.40;99.90
7564;DHT22;3823;53.586;10.040;2023-04-24T18:39:43;9.50;99.90
7564;DHT22;3823;53.586;10.040;2023-04-24T18:42:09;9.50;99.90
7564;DHT22;3823;53.586;10.040;2023-04-24T18:44:35;9.50;99.90
7564;DHT22;3823;53.586;10.040;2023-04-24T18:47:05;9.50;99.90
7564;DHT22;3823;53.586;10.040;2023-04-24T18:49:30;9.60;99.90
7564;DHT22;3823;53.586;10.040;2023-04-24T18:51:56;9.60;99.90
7564;DHT22;3823;53.586;10.040;2023-04-24T18:54:21;9.60;99.90
7564;DHT22;3823;53.586;10.040;2023-04-24T18:56:47;9.60;99.90
7564;DHT22;3823;53.586;10.040;2023-04-24T18:59:13;9.70;99.90
7564;DHT22;3823;53.586;10.040;2023-04-24T19:01:38;9.70;99.90
7564;DHT22;3823;53.586;10.040;2023-04-24T19:04:04;9.60;99.90
7564;DHT22;3823;53.586;10.040;2023-04-24T19:06:29;9.60;99.90
7564;DHT22;3823;53.586;10.040;2023-04-24T19:08:56;9.60;99.90
7564;DHT22;3823;53.586;10.040;2023-04-24T19:11:21;9.50;99.90
7564;DHT22;3823;53.586;10.040;2023-04-24T19:13:47;9.50;99.90
7564;DHT22;3823;53.586;10.040;2023-04-24T19:16:12;9.50;99.90
7564;DHT22;3823;53.586;10.040;2023-04-24T19:18:38;9.50;99.90
7564;DHT22;3823;53.586;10.040;2023-04-24T19:21:03;9.40;99.90
7564;DHT22;3823;53.586;10.040;2023-04-24T19:23:29;9.50;99.90
7564;DHT22;3823;53.586;10.040;2023-04-24T19:25:54;9.50;99.90
7564;DHT22;3823;53.586;10.040;2023-04-24T19:28:20;9.50;99.90
7564;DHT22;3823;53.586;10.040;2023-04-24T19:30:46;9.60;99.90
7564;DHT22;3823;53.586;10.040;2023-04-24T19:33:11;9.60;99.90
7564;DHT22;3823;53.586;10.040;2023-04-24T19:35:37;9.60;99.90
7564;DHT22;3823;53.586;10.040;2023-04-24T19:38:03;9.60;99.90
7564;DHT22;3823;53.586;10.040;2023-04-24T19:40:29;9.60;99.90
7564;DHT22;3823;53.586;10.040;2023-04-24T19:42:55;9.60;99.90
7564;DHT22;3823;53.586;10.040;2023-04-24T19:45:20;9.60;99.90
7564;DHT22;3823;53.586;10.040;2023-04-24T19:47:46;9.60;99.90
7564;DHT22;3823;53.586;10.040;2023-04-24T19:50:12;9.60;99.90
7564;DHT22;3823;53.586;10.040;2023-04-24T19:52:39;9.70;99.90
7564;DHT22;3823;53.586;10.040;2023-04-24T19:55:05;9.70;99.90
7564;DHT22;3823;53.586;10.040;2023-04-24T19:57:30;9.60;99.90
7564;DHT22;3823;53.586;10.040;2023-04-24T19:59:56;9.60;99.90
7564;DHT22;3823;53.586;10.040;2023-04-24T20:02:21;9.60;99.90
7564;DHT22;3823;53.586;10.040;2023-04-24T20:04:47;9.60;99.90